createdAt,value
2018-09-06T00:02:45.011Z,8.80
2018-09-06T00:07:37.611Z,8.87
2018-09-06T00:12:30.202Z,8.60
2018-09-06T00:17:22.746Z,8.87
2018-09-06T00:22:16.481Z,9.90
2018-09-06T00:27:09.087Z,9.63
2018-09-06T00:32:01.723Z,11.40
2018-09-06T00:36:54.272Z,10.03
2018-09-06T00:41:46.916Z,10.17
2018-09-06T00:46:39.482Z,9.97
2018-09-06T00:51:32.134Z,9.90
2018-09-06T00:56:24.701Z,11.13
2018-09-06T01:01:17.328Z,11.43
2018-09-06T01:06:09.934Z,10.20
2018-09-06T01:11:02.630Z,10.63
2018-09-06T01:15:55.443Z,10.67
2018-09-06T01:20:47.991Z,10.17
2018-09-06T01:25:49.766Z,9.70
2018-09-06T01:30:42.527Z,10.13
2018-09-06T01:35:35.095Z,9.47
2018-09-06T01:40:27.748Z,9.37
2018-09-06T01:45:20.420Z,9.17
2018-09-06T01:50:12.996Z,9.80
2018-09-06T01:55:05.578Z,9.63
2018-09-06T01:59:58.131Z,9.17
2018-09-06T02:04:50.772Z,9.70
2018-09-06T02:09:43.456Z,9.80
2018-09-06T02:14:36.051Z,10.17
2018-09-06T02:19:28.606Z,9.63
2018-09-06T02:24:21.221Z,9.83
2018-09-06T02:29:13.924Z,9.90
2018-09-06T02:34:07.079Z,9.97
2018-09-06T02:38:59.752Z,10.37
2018-09-06T02:43:52.346Z,10.87
2018-09-06T02:48:45.050Z,10.60
2018-09-06T02:53:37.642Z,10.57
2018-09-06T02:58:30.186Z,10.97
2018-09-06T03:03:22.826Z,10.90
2018-09-06T03:08:15.562Z,10.40
2018-09-06T03:13:08.111Z,10.97
2018-09-06T03:18:00.737Z,11.37
2018-09-06T03:22:53.379Z,11.60
2018-09-06T03:27:46.111Z,11.20
2018-09-06T03:32:38.717Z,11.97
2018-09-06T03:37:31.329Z,11.60
2018-09-06T03:42:23.914Z,12.03
2018-09-06T03:47:16.884Z,11.77
2018-09-06T03:52:09.780Z,11.10
2018-09-06T03:57:02.527Z,11.67
2018-09-06T04:01:55.045Z,12.90
2018-09-06T04:06:47.736Z,12.47
2018-09-06T04:11:40.404Z,12.40
2018-09-06T04:16:33.691Z,12.97
2018-09-06T04:21:26.256Z,12.10
2018-09-06T04:26:19.052Z,13.23
2018-09-06T04:31:11.656Z,12.47
2018-09-06T04:36:04.410Z,13.40
2018-09-06T04:40:57.351Z,14.37
2018-09-06T04:45:49.942Z,14.43
2018-09-06T04:50:42.601Z,14.40
2018-09-06T04:55:35.220Z,14.77
2018-09-06T05:00:27.943Z,14.17
2018-09-06T05:05:20.619Z,14.43
2018-09-06T05:10:13.235Z,14.87
2018-09-06T05:15:05.904Z,15.43
2018-09-06T05:19:58.574Z,15.00
2018-09-06T05:24:51.223Z,14.93
2018-09-06T05:29:43.839Z,15.57
2018-09-06T05:34:36.431Z,15.40
2018-09-06T05:39:29.129Z,16.73
2018-09-06T05:44:21.863Z,16.27
2018-09-06T05:49:14.454Z,15.93
2018-09-06T05:54:07.440Z,15.73
2018-09-06T05:59:00.137Z,15.80
2018-09-06T06:03:52.863Z,16.23
2018-09-06T06:08:47.191Z,16.97
2018-09-06T06:13:39.864Z,16.40
2018-09-06T06:18:32.435Z,16.53
2018-09-06T06:23:25.057Z,16.43
2018-09-06T06:28:17.644Z,16.63
2018-09-06T06:33:10.408Z,17.50
2018-09-06T06:38:03.111Z,16.83
2018-09-06T06:42:55.759Z,17.03
2018-09-06T06:47:48.499Z,16.40
2018-09-06T06:52:41.368Z,16.03
2018-09-06T06:57:34.113Z,16.20
2018-09-06T07:02:26.881Z,16.60
2018-09-06T07:07:19.467Z,16.77
2018-09-06T07:12:12.075Z,16.43
2018-09-06T07:17:04.659Z,16.77
2018-09-06T07:21:57.426Z,17.03
2018-09-06T07:26:50.020Z,17.93
2018-09-06T07:31:42.634Z,16.37
2018-09-06T07:36:35.248Z,16.90
2018-09-06T07:41:28.060Z,18.40
2018-09-06T07:46:20.614Z,16.50
2018-09-06T07:51:13.192Z,16.57
2018-09-06T07:56:05.939Z,16.20
2018-09-06T08:00:58.655Z,15.83
2018-09-06T08:05:51.255Z,14.97
2018-09-06T08:10:43.825Z,13.93
2018-09-06T08:15:36.417Z,14.47
2018-09-06T08:20:29.088Z,13.60
2018-09-06T08:25:21.739Z,15.53
2018-09-06T08:30:14.323Z,15.87
2018-09-06T08:35:07.095Z,14.13
2018-09-06T08:39:59.840Z,14.40
2018-09-06T08:44:52.546Z,13.53
2018-09-06T08:49:45.223Z,13.07
2018-09-06T08:54:37.795Z,13.67
2018-09-06T08:59:30.511Z,12.87
2018-09-06T09:04:23.275Z,14.37
2018-09-06T09:09:15.874Z,12.67
2018-09-06T09:14:11.267Z,12.70
2018-09-06T09:19:03.890Z,12.30
2018-09-06T09:23:56.479Z,11.33
2018-09-06T09:28:49.102Z,13.07
2018-09-06T09:33:41.939Z,12.17
2018-09-06T09:38:34.558Z,12.23
2018-09-06T09:43:27.904Z,11.20
2018-09-06T09:48:20.632Z,10.70
2018-09-06T09:53:13.330Z,11.37
2018-09-06T09:58:05.941Z,10.60
2018-09-06T10:03:04.837Z,10.33
2018-09-06T10:07:57.894Z,10.57
2018-09-06T10:12:50.638Z,9.77
2018-09-06T10:17:43.278Z,9.10
2018-09-06T10:22:35.940Z,8.33
2018-09-06T10:27:28.559Z,8.27
2018-09-06T10:32:21.127Z,9.70
2018-09-06T10:37:13.800Z,9.70
2018-09-06T10:42:06.402Z,9.83
2018-09-06T10:46:58.985Z,9.60
2018-09-06T10:51:51.542Z,9.80
2018-09-06T10:56:44.302Z,9.80
2018-09-06T11:01:36.906Z,10.07
2018-09-06T11:06:29.523Z,9.87
2018-09-06T11:11:22.168Z,10.50
2018-09-06T11:16:15.241Z,9.90
2018-09-06T11:21:07.976Z,8.50
2018-09-06T11:26:00.573Z,10.13
2018-09-06T11:30:53.119Z,9.80
2018-09-06T11:35:45.668Z,10.13
2018-09-06T11:40:38.404Z,10.17
2018-09-06T11:45:31.019Z,10.10
2018-09-06T11:50:23.701Z,9.57
2018-09-06T11:55:16.474Z,9.20
2018-09-06T12:00:09.153Z,8.53
2018-09-06T12:05:01.826Z,9.17
2018-09-06T12:09:54.510Z,8.37
2018-09-06T12:14:47.179Z,8.30
2018-09-06T12:19:39.876Z,9.67
2018-09-06T12:24:32.513Z,9.43
2018-09-06T12:29:26.028Z,8.33
2018-09-06T12:34:18.920Z,8.50
2018-09-06T12:39:11.531Z,8.93
2018-09-06T12:44:04.160Z,8.87
2018-09-06T12:48:56.927Z,8.20
2018-09-06T12:53:49.595Z,8.30
2018-09-06T12:58:42.264Z,8.93
2018-09-06T13:03:34.793Z,8.13
2018-09-06T13:08:27.404Z,7.80
2018-09-06T13:13:19.966Z,7.87
2018-09-06T13:18:12.539Z,7.70
2018-09-06T13:23:05.234Z,7.83
2018-09-06T13:27:57.815Z,7.17
2018-09-06T13:32:50.707Z,8.30
2018-09-06T13:37:43.334Z,7.93
2018-09-06T13:42:35.950Z,7.67
2018-09-06T13:47:28.575Z,7.43
2018-09-06T13:52:21.168Z,7.87
2018-09-06T13:57:13.781Z,8.03
2018-09-06T14:02:06.367Z,7.50
2018-09-06T14:06:58.930Z,7.87
2018-09-06T14:11:51.518Z,8.07
2018-09-06T14:16:44.253Z,8.27
2018-09-06T14:21:36.809Z,8.33
2018-09-06T14:26:29.504Z,8.17
2018-09-06T14:31:22.097Z,8.20
2018-09-06T14:36:14.963Z,8.47
2018-09-06T14:41:07.572Z,7.90
2018-09-06T14:46:00.187Z,7.93
2018-09-06T14:50:52.818Z,8.10
2018-09-06T14:55:45.374Z,7.60
2018-09-06T15:00:38.095Z,7.87
2018-09-06T15:05:30.794Z,8.30
2018-09-06T15:10:23.346Z,8.47
2018-09-06T15:15:15.955Z,7.87
2018-09-06T15:20:08.658Z,7.60
2018-09-06T15:25:01.323Z,8.07
2018-09-06T15:29:53.994Z,7.90
2018-09-06T15:34:46.803Z,8.10
2018-09-06T15:39:39.394Z,7.93
2018-09-06T15:44:32.033Z,8.40
2018-09-06T15:49:24.697Z,8.30
2018-09-06T15:54:17.466Z,8.43
2018-09-06T15:59:10.064Z,8.10
2018-09-06T16:04:02.688Z,8.60
2018-09-06T16:08:55.307Z,8.33
2018-09-06T16:13:48.081Z,8.60
2018-09-06T16:18:41.030Z,8.10
2018-09-06T16:23:33.642Z,8.03
2018-09-06T16:28:26.230Z,8.53
2018-09-06T16:33:19.222Z,8.20
2018-09-06T16:38:11.808Z,8.53
2018-09-06T16:43:04.722Z,8.47
2018-09-06T16:47:57.433Z,8.33
2018-09-06T16:52:50.267Z,8.40
2018-09-06T16:57:42.947Z,8.93
2018-09-06T17:02:35.637Z,8.03
2018-09-06T17:07:28.219Z,8.60
2018-09-06T17:12:20.859Z,9.27
2018-09-06T17:17:13.544Z,8.80
2018-09-06T17:22:10.558Z,9.57
2018-09-06T17:27:03.233Z,9.27
2018-09-06T17:31:56.142Z,8.87
2018-09-06T17:36:48.797Z,9.27
2018-09-06T17:41:41.386Z,9.40
2018-09-06T17:46:34.304Z,9.43
2018-09-06T17:51:26.969Z,10.47
2018-09-06T17:56:19.748Z,9.60
2018-09-06T18:01:18.444Z,9.73
2018-09-06T18:06:11.632Z,9.07
2018-09-06T18:11:05.048Z,9.57
2018-09-06T18:15:57.668Z,9.63
2018-09-06T18:20:50.269Z,8.90
2018-09-06T18:25:42.976Z,9.30
2018-09-06T18:30:35.574Z,9.40
2018-09-06T18:35:28.204Z,9.27
2018-09-06T18:40:20.704Z,9.60
2018-09-06T18:45:13.326Z,9.50
2018-09-06T18:50:05.896Z,9.47
2018-09-06T18:54:58.492Z,9.53
2018-09-06T18:59:51.017Z,8.77
2018-09-06T19:04:43.639Z,8.83
2018-09-06T19:09:36.171Z,9.20
2018-09-06T19:14:28.758Z,9.40
2018-09-06T19:19:21.326Z,8.93
2018-09-06T19:24:13.896Z,9.47
2018-09-06T19:29:06.440Z,9.87
2018-09-06T19:33:59.259Z,9.63
2018-09-06T19:38:51.838Z,9.53
2018-09-06T19:43:44.585Z,10.00
2018-09-06T19:48:37.184Z,9.47
2018-09-06T19:53:29.816Z,9.60
2018-09-06T19:58:22.477Z,9.60
2018-09-06T20:03:15.356Z,9.27
2018-09-06T20:08:08.273Z,9.47
2018-09-06T20:13:00.888Z,9.60
2018-09-06T20:17:53.464Z,9.37
2018-09-06T20:22:46.022Z,9.13
2018-09-06T20:27:38.687Z,9.63
2018-09-06T20:32:31.201Z,9.97
2018-09-06T20:37:23.940Z,9.53
2018-09-06T20:42:16.617Z,9.50
2018-09-06T20:47:09.278Z,9.83
2018-09-06T20:52:01.919Z,9.50
2018-09-06T20:56:54.457Z,9.67
2018-09-06T21:01:47.010Z,9.83
2018-09-06T21:06:39.915Z,9.67
2018-09-06T21:11:32.463Z,9.57
2018-09-06T21:16:25.123Z,9.60
2018-09-06T21:21:17.864Z,9.00
2018-09-06T21:26:10.422Z,9.73
2018-09-06T21:31:02.976Z,9.60
2018-09-06T21:35:55.659Z,9.87
2018-09-06T21:40:48.271Z,10.20
2018-09-06T21:45:40.806Z,10.37
2018-09-06T21:50:33.420Z,10.20
2018-09-06T21:55:26.023Z,9.97
2018-09-06T22:00:18.646Z,10.80
2018-09-06T22:05:11.239Z,10.23
2018-09-06T22:10:03.991Z,10.03
2018-09-06T22:14:57.161Z,11.03
2018-09-06T22:19:49.727Z,9.90
2018-09-06T22:24:42.770Z,10.23
2018-09-06T22:29:35.321Z,11.23
2018-09-06T22:34:28.459Z,10.30
2018-09-06T22:39:21.022Z,11.03
2018-09-06T22:44:13.840Z,10.40
2018-09-06T22:49:06.467Z,11.30
2018-09-06T22:53:59.071Z,11.00
2018-09-06T22:58:51.817Z,11.43
2018-09-06T23:03:49.183Z,11.33
2018-09-06T23:08:41.811Z,11.40
2018-09-06T23:13:34.504Z,12.13
2018-09-06T23:18:27.083Z,10.90
2018-09-06T23:23:19.650Z,11.63
2018-09-06T23:28:12.267Z,11.43
2018-09-06T23:33:04.912Z,11.50
2018-09-06T23:37:57.519Z,11.83
2018-09-06T23:42:50.067Z,12.23
2018-09-06T23:47:42.703Z,12.07
2018-09-06T23:52:35.308Z,11.90
2018-09-06T23:57:27.920Z,12.47
